Time;durP1;ratioP1;P1;durP2;ratioP2;P2;SDS_P1;SDS_P2;PMS_P1;PMS_P2;Temp;Humidity;BMP_temperature;BMP_pressure;BME280_temperature;BME280_humidity;BME280_pressure;Samples;Min_cycle;Max_cycle;Signal;HPM_P1;HPM_P2
2023/01/02 00:01:40;;;;;;;4.70;3.00;;;;;;;;;;4955316;28;20181;-80
2023/01/02 00:04:05;;;;;;;2.23;2.00;;;;;;;;;;4959880;28;20192;-79
2023/01/02 00:06:37;;;;;;;4.30;2.20;;;;;;;;;;4951412;29;20229;-80
2023/01/02 00:09:03;;;;;;;4.03;2.17;;;;;;;;;;4947625;28;20211;-79
2023/01/02 00:11:29;;;;;;;7.03;2.10;;;;;;;;;;4955929;28;20183;-79
2023/01/02 00:13:54;;;;;;;3.17;1.63;;;;;;;;;;4966968;28;20354;-80
2023/01/02 00:16:19;;;;;;;3.37;1.80;;;;;;;;;;4955007;28;20186;-79
2023/01/02 00:18:44;;;;;;;2.70;1.93;;;;;;;;;;4953454;28;20206;-80
2023/01/02 00:21:09;;;;;;;4.57;2.07;;;;;;;;;;4965561;28;20187;-79
2023/01/02 00:23:35;;;;;;;3.43;1.90;;;;;;;;;;4951921;29;20184;-79
2023/01/02 00:26:00;;;;;;;4.47;2.00;;;;;;;;;;4951659;29;20179;-79
2023/01/02 00:28:25;;;;;;;3.43;1.90;;;;;;;;;;4951667;29;20187;-79
2023/01/02 00:30:51;;;;;;;2.60;2.40;;;;;;;;;;4951986;29;20176;-80
2023/01/02 00:33:16;;;;;;;2.73;2.00;;;;;;;;;;4963624;28;20187;-80
2023/01/02 00:35:41;;;;;;;4.30;2.00;;;;;;;;;;4951540;28;20276;-80
2023/01/02 00:38:06;;;;;;;4.13;2.00;;;;;;;;;;4963511;28;20204;-79
2023/01/02 00:40:32;;;;;;;4.43;2.37;;;;;;;;;;4951713;29;20196;-79
2023/01/02 00:42:57;;;;;;;4.70;2.30;;;;;;;;;;4952798;28;20176;-80
2023/01/02 00:45:22;;;;;;;4.30;2.07;;;;;;;;;;4947775;28;20247;-79
2023/01/02 00:47:47;;;;;;;2.73;1.60;;;;;;;;;;4967448;28;20192;-80
2023/01/02 00:50:12;;;;;;;4.80;2.17;;;;;;;;;;4951942;28;20262;-79
2023/01/02 00:52:38;;;;;;;5.73;1.83;;;;;;;;;;4954199;28;20183;-79
2023/01/02 00:55:03;;;;;;;2.97;1.90;;;;;;;;;;4949162;28;20265;-79
2023/01/02 00:57:28;;;;;;;2.23;1.77;;;;;;;;;;4954872;28;20208;-80
2023/01/02 00:59:54;;;;;;;8.87;2.50;;;;;;;;;;4950510;28;20269;-80
2023/01/02 01:02:19;;;;;;;4.07;1.87;;;;;;;;;;4953630;28;20476;-80
2023/01/02 01:04:44;;;;;;;2.07;1.70;;;;;;;;;;4964792;28;20175;-79
2023/01/02 01:07:09;;;;;;;4.70;1.63;;;;;;;;;;4955748;28;20301;-79
2023/01/02 01:09:35;;;;;;;3.30;2.10;;;;;;;;;;4951534;28;20176;-80
2023/01/02 01:12:00;;;;;;;3.70;1.97;;;;;;;;;;4959244;28;20192;-79
2023/01/02 01:14:25;;;;;;;4.77;2.00;;;;;;;;;;4952218;28;20199;-79
2023/01/02 01:16:50;;;;;;;2.13;1.90;;;;;;;;;;4950868;28;20201;-80
2023/01/02 01:19:15;;;;;;;4.40;2.30;;;;;;;;;;4949183;29;20211;-79
2023/01/02 01:21:41;;;;;;;5.17;1.80;;;;;;;;;;4965314;28;20280;-79
2023/01/02 01:24:06;;;;;;;4.83;1.90;;;;;;;;;;4950567;28;20185;-80
2023/01/02 01:26:31;;;;;;;3.77;1.87;;;;;;;;;;4955925;28;20180;-80
2023/01/02 01:28:57;;;;;;;3.33;2.23;;;;;;;;;;4968318;28;20247;-79
2023/01/02 01:31:22;;;;;;;2.53;1.80;;;;;;;;;;4949707;28;20183;-79
2023/01/02 01:33:47;;;;;;;3.53;2.10;;;;;;;;;;4950522;29;20493;-79
2023/01/02 01:36:14;;;;;;;5.57;2.10;;;;;;;;;;4954536;28;20242;-79
2023/01/02 01:38:39;;;;;;;7.07;1.90;;;;;;;;;;4965939;28;20255;-79
2023/01/02 01:41:04;;;;;;;3.83;1.73;;;;;;;;;;4950359;29;20227;-79
2023/01/02 01:43:40;;;;;;;5.57;2.47;;;;;;;;;;4950632;29;20271;-80
2023/01/02 01:46:07;;;;;;;5.07;1.80;;;;;;;;;;4969621;28;20186;-79
2023/01/02 01:48:32;;;;;;;3.70;1.90;;;;;;;;;;4946902;29;20475;-80
2023/01/02 01:50:57;;;;;;;4.03;1.97;;;;;;;;;;4950331;29;20186;-79
2023/01/02 01:53:23;;;;;;;6.10;2.00;;;;;;;;;;4951736;28;20216;-80
2023/01/02 01:55:48;;;;;;;6.40;2.07;;;;;;;;;;4950682;29;20276;-80
2023/01/02 01:58:16;;;;;;;3.30;2.10;;;;;;;;;;4953848;28;20219;-80
2023/01/02 02:00:42;;;;;;;4.00;2.00;;;;;;;;;;4946969;28;20185;-80
2023/01/02 02:03:09;;;;;;;2.87;2.20;;;;;;;;;;4969341;28;20236;-80
2023/01/02 02:05:35;;;;;;;4.37;2.53;;;;;;;;;;4968848;28;20185;-80
2023/01/02 02:08:09;;;;;;;2.90;1.80;;;;;;;;;;4952551;28;20258;-79
2023/01/02 02:10:35;;;;;;;2.60;2.00;;;;;;;;;;4953315;28;20274;-79
2023/01/02 02:13:00;;;;;;;2.80;1.97;;;;;;;;;;4955735;28;20187;-79
2023/01/02 02:15:29;;;;;;;5.40;2.00;;;;;;;;;;4952065;28;20195;-80
2023/01/02 02:18:11;;;;;;;4.03;2.17;;;;;;;;;;4954494;28;20204;-79
2023/01/02 02:20:42;;;;;;;4.83;1.80;;;;;;;;;;4965882;28;20199;-79
2023/01/02 02:23:26;;;;;;;2.40;2.03;;;;;;;;;;4960614;28;20182;-80
2023/01/02 02:25:51;;;;;;;3.17;2.20;;;;;;;;;;4959208;28;20171;-80
2023/01/02 02:28:23;;;;;;;4.03;2.63;;;;;;;;;;4949986;28;20190;-79
2023/01/02 02:30:54;;;;;;;4.70;2.10;;;;;;;;;;4949686;29;20178;-79
2023/01/02 02:33:37;;;;;;;4.13;2.23;;;;;;;;;;4950105;28;20189;-80
2023/01/02 02:36:09;;;;;;;2.67;2.20;;;;;;;;;;4949745;29;20227;-80
2023/01/02 02:38:49;;;;;;;3.77;2.53;;;;;;;;;;4951834;28;20203;-79
2023/01/02 02:41:19;;;;;;;4.07;1.90;;;;;;;;;;4951927;28;20187;-80
2023/01/02 02:43:50;;;;;;;3.23;2.00;;;;;;;;;;4947957;28;20223;-79
2023/01/02 02:46:22;;;;;;;3.43;2.17;;;;;;;;;;4948604;29;20184;-80
2023/01/02 02:48:54;;;;;;;5.40;3.27;;;;;;;;;;4952398;28;20188;-80
2023/01/02 02:51:34;;;;;;;3.23;1.93;;;;;;;;;;4949266;29;20195;-79
2023/01/02 02:54:02;;;;;;;2.67;1.93;;;;;;;;;;4974501;28;20183;-79
2023/01/02 02:56:28;;;;;;;9.93;2.23;;;;;;;;;;4949534;28;20185;-79
2023/01/02 02:58:54;;;;;;;4.13;2.00;;;;;;;;;;4955365;28;20223;-79
2023/01/02 03:01:23;;;;;;;3.53;1.90;;;;;;;;;;4950128;28;20171;-80
2023/01/02 03:03:48;;;;;;;2.77;2.00;;;;;;;;;;4964928;28;20189;-79
2023/01/02 03:06:22;;;;;;;4.93;2.20;;;;;;;;;;4950565;28;20185;-79
2023/01/02 03:08:47;;;;;;;3.57;2.20;;;;;;;;;;4950305;28;20197;-80
2023/01/02 03:11:13;;;;;;;3.30;2.13;;;;;;;;;;4952303;28;20179;-79
2023/01/02 03:13:42;;;;;;;3.33;1.80;;;;;;;;;;4950850;28;20181;-79
2023/01/02 03:16:11;;;;;;;5.47;2.33;;;;;;;;;;4965828;28;20271;-79
2023/01/02 03:18:55;;;;;;;3.03;2.10;;;;;;;;;;4948764;29;20218;-79
2023/01/02 03:21:23;;;;;;;2.13;1.67;;;;;;;;;;4952773;28;20182;-79
2023/01/02 03:23:48;;;;;;;4.43;1.87;;;;;;;;;;4958495;28;20238;-79
2023/01/02 03:26:15;;;;;;;2.97;2.17;;;;;;;;;;4952763;29;20339;-79
2023/01/02 03:28:42;;;;;;;3.17;2.00;;;;;;;;;;4951600;28;20273;-79
2023/01/02 03:31:09;;;;;;;2.57;2.37;;;;;;;;;;4953364;29;20201;-79
2023/01/02 03:33:38;;;;;;;5.17;2.27;;;;;;;;;;4952504;28;20190;-79
2023/01/02 03:36:06;;;;;;;3.30;1.70;;;;;;;;;;4958332;28;20209;-79
2023/01/02 03:38:38;;;;;;;2.73;1.80;;;;;;;;;;4967603;28;20230;-80
2023/01/02 03:41:16;;;;;;;4.57;1.80;;;;;;;;;;4952151;29;20174;-80
2023/01/02 03:43:43;;;;;;;3.57;1.93;;;;;;;;;;4955881;28;20180;-79
2023/01/02 03:46:17;;;;;;;2.90;1.97;;;;;;;;;;4967228;28;20246;-79
2023/01/02 03:49:03;;;;;;;1.93;1.73;;;;;;;;;;4970131;28;20297;-79
2023/01/02 03:51:28;;;;;;;3.60;2.80;;;;;;;;;;4948787;28;20195;-80
2023/01/02 03:53:53;;;;;;;2.47;2.13;;;;;;;;;;4953960;28;20191;-79
2023/01/02 03:56:37;;;;;;;2.27;2.07;;;;;;;;;;4967219;28;20196;-79
2023/01/02 03:59:02;;;;;;;2.83;2.37;;;;;;;;;;4951600;28;20183;-79
2023/01/02 04:01:32;;;;;;;4.80;1.90;;;;;;;;;;4952079;29;20183;-80
2023/01/02 04:04:17;;;;;;;2.17;1.40;;;;;;;;;;4951792;29;20441;-79
2023/01/02 04:06:46;;;;;;;2.57;1.90;;;;;;;;;;4965238;28;20266;-80
2023/01/02 04:09:14;;;;;;;3.90;2.60;;;;;;;;;;4951647;29;20292;-79
2023/01/02 04:11:41;;;;;;;4.03;2.40;;;;;;;;;;4968385;28;20175;-79
2023/01/02 04:14:12;;;;;;;4.17;2.00;;;;;;;;;;4951946;29;20183;-79
2023/01/02 04:16:39;;;;;;;3.47;1.70;;;;;;;;;;4949726;29;20188;-78
2023/01/02 04:19:07;;;;;;;3.67;1.83;;;;;;;;;;4950037;29;20225;-80
2023/01/02 04:21:33;;;;;;;2.67;1.43;;;;;;;;;;4947736;28;20185;-79
2023/01/02 04:24:05;;;;;;;5.40;2.00;;;;;;;;;;4964893;28;20238;-79
2023/01/02 04:26:43;;;;;;;2.33;2.10;;;;;;;;;;4968188;28;20185;-79
2023/01/02 04:29:09;;;;;;;2.97;1.20;;;;;;;;;;4967388;28;20258;-79
2023/01/02 04:31:37;;;;;;;1.40;1.23;;;;;;;;;;4952781;29;20175;-79
2023/01/02 04:34:03;;;;;;;2.93;2.30;;;;;;;;;;4950056;28;20219;-79
2023/01/02 04:36:28;;;;;;;2.73;1.40;;;;;;;;;;4950003;28;20243;-80
2023/01/02 04:38:53;;;;;;;1.67;1.57;;;;;;;;;;4950092;29;20230;-79
2023/01/02 04:41:26;;;;;;;5.57;1.93;;;;;;;;;;4951673;29;20182;-80
2023/01/02 04:43:52;;;;;;;3.37;1.40;;;;;;;;;;4960654;28;20194;-80
2023/01/02 04:46:17;;;;;;;1.80;1.40;;;;;;;;;;4957447;28;20183;-80
2023/01/02 04:48:42;;;;;;;3.00;1.97;;;;;;;;;;4947769;29;20192;-79
2023/01/02 04:51:07;;;;;;;3.87;1.40;;;;;;;;;;4950882;29;20218;-79
2023/01/02 04:53:33;;;;;;;7.43;1.90;;;;;;;;;;4955170;28;20187;-79
2023/01/02 04:55:58;;;;;;;3.00;1.77;;;;;;;;;;4956946;28;20182;-79
2023/01/02 04:58:25;;;;;;;2.43;1.40;;;;;;;;;;4949402;29;20208;-79
2023/01/02 05:00:50;;;;;;;2.83;1.43;;;;;;;;;;4951882;29;20243;-79
2023/01/02 05:03:16;;;;;;;1.57;1.37;;;;;;;;;;4951339;28;20182;-80
2023/01/02 05:05:41;;;;;;;2.57;1.73;;;;;;;;;;4956603;28;20192;-79
2023/01/02 05:08:06;;;;;;;5.63;2.40;;;;;;;;;;4954302;28;20240;-79
2023/01/02 05:10:31;;;;;;;4.30;1.73;;;;;;;;;;4950793;28;20189;-79
2023/01/02 05:12:57;;;;;;;5.27;1.47;;;;;;;;;;4958466;28;20198;-79
2023/01/02 05:15:22;;;;;;;2.80;1.40;;;;;;;;;;4953518;28;20180;-80
2023/01/02 05:17:48;;;;;;;2.43;1.50;;;;;;;;;;4956230;28;20207;-79
2023/01/02 05:20:13;;;;;;;3.20;1.70;;;;;;;;;;4966729;28;20210;-79
2023/01/02 05:25:23;;;;;;;5.10;1.67;;;;;;;;;;4951081;28;20258;-79
2023/01/02 05:27:53;;;;;;;3.93;1.50;;;;;;;;;;4966026;28;20182;-79
2023/01/02 05:30:18;;;;;;;4.40;1.50;;;;;;;;;;4949455;29;20246;-79
2023/01/02 05:32:43;;;;;;;3.13;1.93;;;;;;;;;;4951035;29;20211;-79
2023/01/02 05:35:08;;;;;;;1.67;1.43;;;;;;;;;;4966445;28;20201;-79
2023/01/02 05:37:34;;;;;;;4.87;1.83;;;;;;;;;;4954015;28;20333;-79
2023/01/02 05:39:59;;;;;;;4.43;1.80;;;;;;;;;;4949662;29;20184;-79
2023/01/02 05:42:24;;;;;;;1.90;1.10;;;;;;;;;;4947495;29;20175;-79
2023/01/02 05:44:50;;;;;;;3.10;1.80;;;;;;;;;;4949096;29;20179;-79
2023/01/02 05:47:15;;;;;;;6.07;1.50;;;;;;;;;;4948998;28;20195;-79
2023/01/02 05:49:40;;;;;;;2.90;1.60;;;;;;;;;;4956929;28;20184;-80
2023/01/02 05:52:05;;;;;;;5.53;1.80;;;;;;;;;;4944672;28;20203;-80
2023/01/02 05:54:30;;;;;;;2.80;1.93;;;;;;;;;;4955515;28;20210;-80
2023/01/02 05:56:56;;;;;;;4.67;1.30;;;;;;;;;;4954017;28;20232;-79
2023/01/02 05:59:21;;;;;;;3.57;1.90;;;;;;;;;;4951312;28;20183;-79
2023/01/02 06:01:46;;;;;;;2.07;1.50;;;;;;;;;;4952411;28;20184;-79
2023/01/02 06:04:11;;;;;;;4.63;1.77;;;;;;;;;;4955610;28;20202;-79
2023/01/02 06:06:38;;;;;;;2.67;1.70;;;;;;;;;;4952913;28;20228;-80
2023/01/02 06:09:03;;;;;;;1.63;1.53;;;;;;;;;;4951654;28;20187;-80
2023/01/02 06:11:29;;;;;;;2.07;1.57;;;;;;;;;;4966529;28;20184;-79
2023/01/02 06:13:54;;;;;;;2.53;1.60;;;;;;;;;;4950730;28;20176;-79
2023/01/02 06:16:19;;;;;;;3.63;1.97;;;;;;;;;;4952347;28;20188;-79
2023/01/02 06:18:45;;;;;;;3.67;2.60;;;;;;;;;;4949772;28;20208;-80
2023/01/02 06:21:11;;;;;;;2.93;1.77;;;;;;;;;;4949659;28;20215;-80
2023/01/02 06:23:37;;;;;;;4.23;1.77;;;;;;;;;;4949095;28;20257;-79
2023/01/02 06:26:03;;;;;;;2.83;2.60;;;;;;;;;;4964920;28;20327;-79
2023/01/02 06:28:28;;;;;;;2.23;1.53;;;;;;;;;;4965515;28;20184;-79
2023/01/02 06:30:57;;;;;;;3.13;1.87;;;;;;;;;;4946778;28;20181;-79
2023/01/02 06:33:23;;;;;;;2.83;2.10;;;;;;;;;;4949823;29;20191;-80
2023/01/02 06:35:55;;;;;;;2.70;2.07;;;;;;;;;;4950125;28;20192;-80
2023/01/02 06:38:20;;;;;;;2.63;1.53;;;;;;;;;;4947513;29;20299;-79
2023/01/02 06:40:50;;;;;;;3.30;1.50;;;;;;;;;;4947884;28;20291;-79
2023/01/02 06:43:16;;;;;;;2.47;1.60;;;;;;;;;;4965438;28;20271;-79
2023/01/02 06:45:41;;;;;;;2.03;1.10;;;;;;;;;;4949852;28;20216;-80
2023/01/02 06:48:06;;;;;;;3.37;1.63;;;;;;;;;;4950646;28;20195;-79
2023/01/02 06:50:31;;;;;;;2.33;1.50;;;;;;;;;;4953030;28;20259;-79
2023/01/02 06:52:56;;;;;;;3.43;1.30;;;;;;;;;;4950684;28;20232;-79
2023/01/02 06:55:22;;;;;;;3.50;1.80;;;;;;;;;;4955908;28;20195;-79
2023/01/02 06:57:47;;;;;;;3.23;1.90;;;;;;;;;;4952568;28;20217;-79
2023/01/02 07:00:12;;;;;;;3.80;1.90;;;;;;;;;;4957941;28;20397;-79
2023/01/02 07:02:39;;;;;;;2.63;1.63;;;;;;;;;;4955754;28;20212;-79
2023/01/02 07:05:04;;;;;;;2.77;1.70;;;;;;;;;;4953432;29;20184;-80
2023/01/02 07:07:29;;;;;;;5.57;2.00;;;;;;;;;;4953180;28;20323;-79
2023/01/02 07:09:56;;;;;;;2.03;1.40;;;;;;;;;;4969441;28;20217;-79
2023/01/02 07:12:21;;;;;;;2.67;1.50;;;;;;;;;;4955427;28;20240;-80
2023/01/02 07:14:46;;;;;;;2.70;1.30;;;;;;;;;;4961179;28;20275;-80
2023/01/02 07:17:11;;;;;;;3.20;1.57;;;;;;;;;;4953911;28;20555;-79
2023/01/02 07:19:36;;;;;;;2.40;1.33;;;;;;;;;;4955685;28;20182;-79
2023/01/02 07:22:03;;;;;;;3.27;1.63;;;;;;;;;;4953161;29;20184;-78
2023/01/02 07:24:28;;;;;;;4.40;1.30;;;;;;;;;;4953071;28;20183;-78
2023/01/02 07:26:53;;;;;;;2.47;1.57;;;;;;;;;;4957482;28;20176;-79
2023/01/02 07:29:18;;;;;;;3.87;1.30;;;;;;;;;;4950656;29;20176;-79
2023/01/02 07:31:43;;;;;;;3.70;1.43;;;;;;;;;;4952094;29;20183;-79
2023/01/02 07:34:08;;;;;;;1.30;1.20;;;;;;;;;;4952128;28;20211;-79
2023/01/02 07:36:34;;;;;;;4.70;1.40;;;;;;;;;;4954002;28;20192;-79
2023/01/02 07:38:59;;;;;;;4.07;1.90;;;;;;;;;;4951866;28;20220;-80
2023/01/02 07:41:24;;;;;;;6.27;2.07;;;;;;;;;;4952359;29;20282;-79
2023/01/02 07:43:50;;;;;;;2.50;1.77;;;;;;;;;;4966005;28;20220;-79
2023/01/02 07:46:17;;;;;;;3.37;1.63;;;;;;;;;;4957822;28;20269;-78
2023/01/02 07:48:42;;;;;;;4.63;1.87;;;;;;;;;;4955045;28;20186;-79
2023/01/02 07:51:08;;;;;;;6.17;2.30;;;;;;;;;;4951420;29;20267;-79
2023/01/02 07:53:33;;;;;;;1.93;1.27;;;;;;;;;;4955870;28;20187;-80
2023/01/02 07:56:00;;;;;;;1.83;1.37;;;;;;;;;;4959491;28;20196;-79
2023/01/02 07:58:26;;;;;;;4.47;2.03;;;;;;;;;;4968269;28;20204;-79
2023/01/02 08:00:52;;;;;;;6.47;1.80;;;;;;;;;;4948772;29;20897;-79
2023/01/02 08:03:17;;;;;;;7.23;2.40;;;;;;;;;;4951218;29;20462;-80
2023/01/02 08:05:43;;;;;;;3.53;1.80;;;;;;;;;;4951903;29;20176;-79
2023/01/02 08:08:08;;;;;;;5.83;1.60;;;;;;;;;;4954460;28;20320;-79
2023/01/02 08:10:35;;;;;;;3.93;1.70;;;;;;;;;;4951336;28;20188;-79
2023/01/02 08:13:00;;;;;;;5.97;2.07;;;;;;;;;;4975361;28;20244;-79
2023/01/02 08:15:25;;;;;;;3.80;1.40;;;;;;;;;;4952058;28;20216;-79
2023/01/02 08:17:50;;;;;;;3.30;1.70;;;;;;;;;;4956255;28;20209;-79
2023/01/02 08:20:15;;;;;;;4.07;1.50;;;;;;;;;;4952354;28;20180;-79
2023/01/02 08:22:41;;;;;;;5.87;2.23;;;;;;;;;;4961682;28;20177;-79
2023/01/02 08:25:07;;;;;;;3.40;1.80;;;;;;;;;;4957572;28;20182;-79
2023/01/02 08:27:32;;;;;;;3.20;1.77;;;;;;;;;;4949320;28;20252;-80
2023/01/02 08:29:57;;;;;;;4.53;1.43;;;;;;;;;;4950800;28;20295;-79
2023/01/02 08:32:23;;;;;;;3.73;1.50;;;;;;;;;;4960074;28;20210;-79
2023/01/02 08:34:48;;;;;;;3.63;1.60;;;;;;;;;;4956222;28;20184;-79
2023/01/02 08:37:13;;;;;;;5.27;2.03;;;;;;;;;;4958213;28;20239;-79
2023/01/02 08:39:38;;;;;;;5.07;1.63;;;;;;;;;;4955448;28;20208;-79
2023/01/02 08:42:04;;;;;;;4.20;1.97;;;;;;;;;;4957727;28;20235;-80
2023/01/02 08:44:29;;;;;;;3.60;2.00;;;;;;;;;;4954538;28;20216;-80
2023/01/02 08:46:54;;;;;;;5.97;2.33;;;;;;;;;;4958351;28;20174;-79
2023/01/02 08:49:20;;;;;;;3.60;1.50;;;;;;;;;;4956664;28;20183;-79
2023/01/02 08:51:45;;;;;;;4.13;1.60;;;;;;;;;;4951624;29;20188;-80
2023/01/02 08:54:10;;;;;;;2.90;1.80;;;;;;;;;;4951293;29;20192;-79
2023/01/02 08:56:36;;;;;;;2.60;1.63;;;;;;;;;;4958124;28;20206;-79
2023/01/02 08:59:05;;;;;;;4.63;1.67;;;;;;;;;;4958610;28;20205;-79
2023/01/02 09:01:31;;;;;;;4.87;2.63;;;;;;;;;;4949597;28;20177;-79
2023/01/02 09:03:57;;;;;;;5.47;1.70;;;;;;;;;;4952153;28;20184;-79
2023/01/02 09:06:23;;;;;;;6.37;1.70;;;;;;;;;;4950752;29;20188;-79
2023/01/02 09:08:51;;;;;;;4.07;1.73;;;;;;;;;;4954457;28;20200;-79
2023/01/02 09:11:17;;;;;;;5.83;2.27;;;;;;;;;;4951024;29;20181;-79
2023/01/02 09:13:44;;;;;;;5.87;2.10;;;;;;;;;;4957029;28;20185;-79
2023/01/02 09:16:10;;;;;;;7.23;2.30;;;;;;;;;;4948936;28;20184;-80
2023/01/02 09:18:36;;;;;;;7.63;1.70;;;;;;;;;;4957555;28;20213;-80
2023/01/02 09:21:01;;;;;;;6.53;2.20;;;;;;;;;;4964712;28;20181;-79
2023/01/02 09:23:26;;;;;;;4.57;2.67;;;;;;;;;;4957716;28;20231;-79
2023/01/02 09:25:55;;;;;;;5.00;2.10;;;;;;;;;;4966691;28;20180;-79
2023/01/02 09:28:21;;;;;;;4.40;1.80;;;;;;;;;;4949721;29;20189;-80
2023/01/02 09:30:46;;;;;;;8.27;1.90;;;;;;;;;;4955738;28;20184;-80
2023/01/02 09:33:11;;;;;;;3.87;1.70;;;;;;;;;;4949588;28;20277;-79
2023/01/02 09:35:36;;;;;;;3.63;1.90;;;;;;;;;;4955356;28;20201;-79
2023/01/02 09:38:01;;;;;;;3.43;1.80;;;;;;;;;;4954389;28;20208;-79
2023/01/02 09:40:27;;;;;;;4.60;1.80;;;;;;;;;;4950631;28;20269;-80
2023/01/02 09:42:52;;;;;;;3.30;1.87;;;;;;;;;;4964620;28;20210;-79
2023/01/02 09:45:18;;;;;;;2.30;1.57;;;;;;;;;;4951529;28;20200;-79
2023/01/02 09:47:44;;;;;;;5.20;2.00;;;;;;;;;;4956046;28;20169;-79
2023/01/02 09:50:13;;;;;;;6.10;2.13;;;;;;;;;;4955453;28;20178;-79
2023/01/02 09:52:43;;;;;;;9.43;2.17;;;;;;;;;;4950761;28;20232;-80
2023/01/02 09:55:21;;;;;;;10.07;2.50;;;;;;;;;;4969241;28;20188;-80
2023/01/02 09:58:03;;;;;;;4.37;1.63;;;;;;;;;;4949200;29;20300;-79
2023/01/02 10:00:34;;;;;;;3.60;1.70;;;;;;;;;;4960369;28;20181;-80
2023/01/02 10:02:59;;;;;;;6.03;2.23;;;;;;;;;;4970727;28;20200;-80
2023/01/02 10:05:39;;;;;;;4.57;2.00;;;;;;;;;;4949832;29;20188;-80
2023/01/02 10:08:23;;;;;;;5.90;2.33;;;;;;;;;;4964093;28;20234;-79
2023/01/02 10:10:59;;;;;;;4.73;1.80;;;;;;;;;;4964483;28;20240;-80
2023/01/02 10:13:30;;;;;;;6.30;2.00;;;;;;;;;;4962560;28;20200;-80
2023/01/02 10:15:56;;;;;;;5.90;2.07;;;;;;;;;;4968029;28;20190;-80
2023/01/02 10:18:34;;;;;;;7.20;2.90;;;;;;;;;;4949117;29;20219;-80
2023/01/02 10:21:02;;;;;;;5.40;2.57;;;;;;;;;;4971326;28;20212;-80
2023/01/02 10:23:32;;;;;;;4.17;2.23;;;;;;;;;;4951238;28;20184;-79
2023/01/02 10:26:02;;;;;;;7.10;2.30;;;;;;;;;;4953591;28;20172;-79
2023/01/02 10:28:45;;;;;;;4.53;2.20;;;;;;;;;;4949827;28;20236;-80
2023/01/02 10:31:14;;;;;;;8.93;2.60;;;;;;;;;;4945119;29;20474;-79
2023/01/02 10:33:44;;;;;;;4.27;2.13;;;;;;;;;;4952836;28;20197;-80
2023/01/02 10:36:19;;;;;;;7.20;2.20;;;;;;;;;;4950518;29;20199;-79
2023/01/02 10:38:44;;;;;;;6.63;2.20;;;;;;;;;;4967893;28;20189;-80
2023/01/02 10:41:10;;;;;;;6.40;2.57;;;;;;;;;;4955679;28;20296;-80
2023/01/02 10:43:35;;;;;;;4.90;2.47;;;;;;;;;;4952889;28;20476;-80
2023/01/02 10:46:02;;;;;;;8.10;2.70;;;;;;;;;;4952318;28;20195;-79
2023/01/02 10:48:30;;;;;;;9.53;2.50;;;;;;;;;;4951107;29;20186;-79
2023/01/02 10:50:59;;;;;;;5.47;2.40;;;;;;;;;;4953639;28;20276;-80
2023/01/02 10:53:27;;;;;;;7.67;2.30;;;;;;;;;;4956780;28;20179;-79
2023/01/02 10:55:53;;;;;;;5.53;2.80;;;;;;;;;;4959573;28;20186;-80
2023/01/02 10:58:20;;;;;;;5.87;2.47;;;;;;;;;;4956418;28;20213;-80
2023/01/02 11:00:47;;;;;;;4.70;2.43;;;;;;;;;;4953347;29;20171;-80
2023/01/02 11:03:13;;;;;;;5.27;2.10;;;;;;;;;;4953329;28;20187;-80
2023/01/02 11:05:43;;;;;;;7.50;2.20;;;;;;;;;;4949571;29;20182;-80
2023/01/02 11:08:13;;;;;;;9.63;2.53;;;;;;;;;;4968709;28;20247;-80
2023/01/02 11:10:39;;;;;;;4.23;2.37;;;;;;;;;;4953903;28;20179;-80
2023/01/02 11:13:11;;;;;;;7.40;2.50;;;;;;;;;;4958781;28;20176;-80
2023/01/02 11:15:51;;;;;;;5.43;2.33;;;;;;;;;;4954505;28;20174;-80
2023/01/02 11:18:19;;;;;;;9.37;2.50;;;;;;;;;;4952838;29;20232;-80
2023/01/02 11:20:50;;;;;;;7.97;2.60;;;;;;;;;;4967459;28;20180;-80
2023/01/02 11:23:16;;;;;;;5.07;2.30;;;;;;;;;;4953264;29;20181;-80
2023/01/02 11:25:42;;;;;;;6.97;2.60;;;;;;;;;;4952748;28;20390;-80
2023/01/02 11:28:22;;;;;;;9.37;3.20;;;;;;;;;;4952253;29;20192;-80
2023/01/02 11:30:53;;;;;;;6.90;2.40;;;;;;;;;;4950892;28;20316;-80
2023/01/02 11:33:28;;;;;;;6.27;2.40;;;;;;;;;;4949713;28;20212;-80
2023/01/02 11:36:03;;;;;;;7.37;2.63;;;;;;;;;;4951527;29;20203;-80
2023/01/02 11:38:48;;;;;;;9.17;3.80;;;;;;;;;;4968792;28;20206;-80
2023/01/02 11:44:10;;;;;;;4.03;1.93;;;;;;;;;;4952927;28;20386;-80
2023/01/02 11:46:36;;;;;;;5.87;2.73;;;;;;;;;;4967250;28;20190;-80
2023/01/02 11:49:02;;;;;;;6.80;2.50;;;;;;;;;;4951982;29;20211;-79
2023/01/02 11:51:28;;;;;;;6.33;3.13;;;;;;;;;;4959797;28;20185;-80
2023/01/02 11:53:55;;;;;;;5.73;2.70;;;;;;;;;;4958847;28;20184;-80
2023/01/02 11:56:25;;;;;;;9.60;2.70;;;;;;;;;;4951116;28;20195;-80
2023/01/02 11:58:57;;;;;;;7.93;2.57;;;;;;;;;;4965097;28;20213;-80
2023/01/02 12:01:42;;;;;;;6.30;2.93;;;;;;;;;;4968984;28;20181;-80
2023/01/02 12:04:08;;;;;;;5.73;2.53;;;;;;;;;;4954455;28;20180;-80
2023/01/02 12:06:42;;;;;;;6.30;2.70;;;;;;;;;;4954937;28;20227;-80
2023/01/02 12:09:20;;;;;;;6.80;3.47;;;;;;;;;;4954049;28;20189;-80
2023/01/02 12:12:04;;;;;;;5.10;2.80;;;;;;;;;;4948319;28;20242;-80
2023/01/02 12:14:48;;;;;;;7.63;2.97;;;;;;;;;;4975598;28;20193;-80
2023/01/02 12:17:32;;;;;;;6.57;2.37;;;;;;;;;;4956448;28;20196;-80
2023/01/02 12:19:57;;;;;;;7.07;2.90;;;;;;;;;;4953471;28;20270;-80
2023/01/02 12:22:22;;;;;;;7.43;2.60;;;;;;;;;;4953367;28;20279;-80
2023/01/02 12:25:05;;;;;;;8.00;3.13;;;;;;;;;;4967925;28;20191;-81
2023/01/02 12:27:45;;;;;;;8.83;3.60;;;;;;;;;;4966957;28;20235;-80
2023/01/02 12:30:12;;;;;;;6.57;2.97;;;;;;;;;;4953599;28;20198;-80
2023/01/02 12:32:58;;;;;;;7.30;2.27;;;;;;;;;;4954580;28;20194;-80
2023/01/02 12:35:24;;;;;;;6.27;3.10;;;;;;;;;;4963964;28;20467;-79
2023/01/02 12:37:53;;;;;;;6.77;2.80;;;;;;;;;;4947063;29;20337;-80
2023/01/02 12:40:37;;;;;;;4.73;2.37;;;;;;;;;;4950710;28;20178;-80
2023/01/02 12:43:23;;;;;;;12.93;3.30;;;;;;;;;;4951465;29;20188;-80
2023/01/02 12:45:54;;;;;;;7.00;2.33;;;;;;;;;;4958813;28;20190;-80
2023/01/02 12:48:26;;;;;;;8.73;3.03;;;;;;;;;;4947780;28;20199;-80
2023/01/02 12:50:51;;;;;;;12.20;3.37;;;;;;;;;;4966658;28;20274;-80
2023/01/02 12:53:25;;;;;;;8.02;3.00;;;;;;;;;;4951272;29;20226;-80
2023/01/02 12:56:29;;;;;;;5.63;3.00;;;;;;;;;;4949423;28;20181;-80
2023/01/02 12:58:55;;;;;;;7.50;2.73;;;;;;;;;;4874371;29;20208;-80
2023/01/02 13:01:26;;;;;;;6.33;2.93;;;;;;;;;;4874418;29;20264;-80
2023/01/02 13:03:55;;;;;;;9.63;3.10;;;;;;;;;;4859794;29;20207;-79
2023/01/02 13:06:36;;;;;;;6.80;2.67;;;;;;;;;;4873412;29;20197;-80
2023/01/02 13:09:04;;;;;;;9.67;2.90;;;;;;;;;;4873670;29;20241;-80
2023/01/02 13:11:32;;;;;;;5.53;3.23;;;;;;;;;;4873954;29;20190;-80
2023/01/02 13:14:00;;;;;;;6.30;2.93;;;;;;;;;;4871997;29;20541;-80
2023/01/02 13:16:26;;;;;;;7.80;2.40;;;;;;;;;;4865448;29;21565;-80
2023/01/02 13:18:57;;;;;;;5.37;3.13;;;;;;;;;;4859942;29;20259;-80
2023/01/02 13:21:22;;;;;;;7.13;3.00;;;;;;;;;;4863056;29;20187;-79
2023/01/02 13:23:47;;;;;;;5.35;2.85;;;;;;;;;;4856840;29;20198;-80
2023/01/02 13:26:14;;;;;;;8.30;2.73;;;;;;;;;;4863534;29;20186;-80
2023/01/02 13:28:54;;;;;;;4.60;2.23;;;;;;;;;;4879596;29;20193;-80
2023/01/02 13:31:20;;;;;;;10.77;3.30;;;;;;;;;;4956317;28;20181;-80
2023/01/02 13:33:47;;;;;;;9.30;3.17;;;;;;;;;;4967006;28;20226;-80
2023/01/02 13:36:22;;;;;;;8.57;2.80;;;;;;;;;;4955806;28;20205;-80
2023/01/02 13:38:50;;;;;;;5.00;2.77;;;;;;;;;;4949149;28;20206;-80
2023/01/02 13:41:16;;;;;;;7.50;3.53;;;;;;;;;;4955896;28;20561;-80
2023/01/02 13:43:46;;;;;;;7.73;2.97;;;;;;;;;;4948036;28;20262;-80
2023/01/02 13:46:12;;;;;;;9.33;3.67;;;;;;;;;;4953166;28;20266;-80
2023/01/02 13:48:49;;;;;;;7.57;3.47;;;;;;;;;;4951719;28;20231;-80
2023/01/02 13:51:15;;;;;;;11.87;3.43;;;;;;;;;;4954353;28;20247;-79
2023/01/02 13:53:41;;;;;;;6.67;3.00;;;;;;;;;;4953000;28;20185;-80
2023/01/02 13:56:08;;;;;;;9.17;3.27;;;;;;;;;;4952420;28;23374;-80
2023/01/02 13:58:42;;;;;;;6.30;3.00;;;;;;;;;;4953139;28;20202;-80
2023/01/02 14:01:30;;;;;;;11.03;4.27;;;;;;;;;;4952417;28;20189;-80
2023/01/02 14:04:18;;;;;;;9.80;3.90;;;;;;;;;;4965764;28;20178;-80
2023/01/02 14:06:46;;;;;;;5.87;2.90;;;;;;;;;;4949194;28;20228;-80
2023/01/02 14:09:16;;;;;;;9.87;2.77;;;;;;;;;;4950927;28;20221;-80
2023/01/02 14:12:01;;;;;;;7.10;3.87;;;;;;;;;;4944146;28;20206;-80
2023/01/02 14:14:43;;;;;;;5.43;2.57;;;;;;;;;;4949553;28;20194;-80
2023/01/02 14:17:13;;;;;;;10.53;3.80;;;;;;;;;;4949951;28;20188;-80
2023/01/02 14:19:39;;;;;;;7.70;3.23;;;;;;;;;;4945858;29;20187;-80
2023/01/02 14:22:08;;;;;;;11.63;4.03;;;;;;;;;;4948044;28;20185;-80
2023/01/02 14:24:36;;;;;;;5.30;2.90;;;;;;;;;;4950220;28;20181;-80
2023/01/02 14:27:03;;;;;;;9.20;2.90;;;;;;;;;;4954870;28;20188;-80
2023/01/02 14:29:29;;;;;;;5.63;3.20;;;;;;;;;;4959442;28;20179;-80
2023/01/02 14:31:59;;;;;;;7.13;3.10;;;;;;;;;;4955612;28;20917;-81
2023/01/02 14:34:25;;;;;;;9.13;3.43;;;;;;;;;;4948313;29;20199;-79
2023/01/02 14:36:52;;;;;;;11.63;5.43;;;;;;;;;;4956547;28;20207;-80
2023/01/02 14:39:22;;;;;;;11.97;5.10;;;;;;;;;;4947588;29;20214;-79
2023/01/02 14:44:42;;;;;;;12.87;6.93;;;;;;;;;;4945499;29;20192;-79
2023/01/02 14:47:18;;;;;;;13.30;5.37;;;;;;;;;;4966529;28;20181;-78
2023/01/02 14:49:47;;;;;;;17.20;7.63;;;;;;;;;;4955037;28;20176;-79
2023/01/02 14:52:15;;;;;;;13.73;5.90;;;;;;;;;;4960234;28;20182;-79
2023/01/02 14:54:47;;;;;;;19.43;9.60;;;;;;;;;;4955645;28;20179;-78
2023/01/02 14:57:23;;;;;;;6.87;4.00;;;;;;;;;;4965663;28;20183;-79
2023/01/02 14:59:51;;;;;;;12.73;10.10;;;;;;;;;;4971136;28;20180;-79